CYNM

Matagami Airport

Matagami, Quebec, Canada
METAR CYNM 211300Z AUTO 13004KT 9SM FEW240 22/15 A3005 RMK SLP179 DENSITY ALT 1800FT
Observed Flight Rules
Jul-21 @ 13:00 UTC (52 minutes ago) Visual Flight Rules
Wind Visibility Clouds
130° at 4 knots 9 miles
  • Few at 24,000' AGL
Temperatures Readings
Current 22°C / 72°F
Dewpoint 15°C / 59°F
Humidity 65%
Altimeter 30.05" Hg
Pressure 1017.9 hPa
Elevation 281
METAR CYNM 211300Z AUTO 13004KT 9SM FEW240 22/15 A3005 RMK SLP179 DENSITY ALT 1800FT
Observed Flight Rules
Jul-21 @ 13:00 UTC
(52 minutes ago)
VFR
Wind Visibility
130° at 4 knots 9 miles
Clouds
  • Few at 24,000' AGL
Temperature Dewpoint
22°C / 72°F 15°C / 59°F
Humidity Altimeter Pressure
65% 30.05" Hg 1017.9 hPa